AUS weather

Austin Bergstrom International Airport
Austin, Texas, United States

Public forecast

Using degrees Fahrenheit for public forecast. Weather courtesy of forecast.io.

Current aviation weather report (METAR) for Austin Bergstrom International Airport

Retrieved 2019/10/20 19:53 UTC (8 minutes ago):

KAUS 201953Z 18013G22KT 10SM BKN046 BKN055 33/21 A2970 RMK AO2 SLP048 T03330206

Aviation forecast (TAF) for Austin Bergstrom International Airport

Retrieved 2019/10/20 18:36 UTC (1 hour ago):

TAF KAUS 201734Z 2018/2124 18007KT P6SM BKN022 FM202000 18012KT P6SM BKN035 FM210300 19012KT P6SM OVC015 FM210800 21008KT P6SM VCSH BKN012 OVC035 FM211000 34012KT 6SM -TSRA BR SCT015 BKN035CB FM211400 36012KT P6SM FEW060